Time;durP1;ratioP1;P1;durP2;ratioP2;P2;SDS_P1;SDS_P2;PMS_P1;PMS_P2;Temp;Humidity;BMP_temperature;BMP_pressure;BME280_temperature;BME280_humidity;BME280_pressure;Samples;Min_cycle;Max_cycle;Signal;HPM_P1;HPM_P2
2022/12/05 00:00:20;;;;;;;8.43;1.33;;;;;;;12.66;nan;100355.09;6107225;23;20857;-88
2022/12/05 00:02:49;;;;;;;6.90;1.50;;;;;;;12.63;nan;100361.00;6107626;23;20484;-88
2022/12/05 00:05:17;;;;;;;4.60;1.33;;;;;;;12.64;nan;100373.66;6131010;23;20907;-88
2022/12/05 00:07:48;;;;;;;3.93;1.30;;;;;;;12.63;nan;100382.94;6107058;23;20885;-89
2022/12/05 00:10:16;;;;;;;6.63;1.90;;;;;;;12.61;nan;100383.13;6131268;23;20800;-88
2022/12/05 00:12:47;;;;;;;7.77;2.30;;;;;;;12.57;nan;100386.53;6107070;23;20708;-89
2022/12/05 00:15:14;;;;;;;7.63;1.77;;;;;;;12.65;nan;100398.09;6106993;23;20511;-89
2022/12/05 00:17:42;;;;;;;5.90;1.80;;;;;;;12.63;nan;100393.91;6130695;23;20401;-88
2022/12/05 00:20:12;;;;;;;5.50;1.93;;;;;;;12.67;nan;100395.16;6106918;23;20432;-89
2022/12/05 00:22:40;;;;;;;8.73;2.27;;;;;;;12.66;nan;100396.22;6106724;23;20436;-89
2022/12/05 00:25:08;;;;;;;3.03;1.20;;;;;;;12.65;nan;100381.66;6106814;23;20484;-89
2022/12/05 00:27:39;;;;;;;5.97;1.80;;;;;;;12.71;nan;100379.94;6107240;23;20872;-89
2022/12/05 00:30:07;;;;;;;6.20;1.60;;;;;;;12.70;nan;100361.81;6156239;23;20405;-89
2022/12/05 00:32:37;;;;;;;5.87;1.33;;;;;;;12.74;nan;100372.13;6107288;23;20472;-88
2022/12/05 00:35:05;;;;;;;7.33;1.40;;;;;;;12.80;nan;100364.94;6130870;23;20484;-89
2022/12/05 00:37:37;;;;;;;4.97;1.10;;;;;;;12.82;nan;100356.47;6130582;23;20978;-89
2022/12/05 00:40:10;;;;;;;7.73;1.30;;;;;;;12.86;nan;100347.59;6131077;23;20476;-89
2022/12/05 00:42:41;;;;;;;7.30;1.70;;;;;;;12.91;nan;100346.94;6131326;23;20400;-89
2022/12/05 00:45:21;;;;;;;9.47;1.73;;;;;;;12.89;nan;100327.13;6109191;23;20397;-89
2022/12/05 00:47:52;;;;;;;11.33;1.90;;;;;;;12.97;nan;100329.59;6130768;23;20523;-89
2022/12/05 00:50:21;;;;;;;6.07;1.60;;;;;;;12.95;nan;100327.06;6106528;23;20405;-88
2022/12/05 00:52:50;;;;;;;6.97;1.60;;;;;;;12.97;nan;100321.38;6131063;23;20405;-88
2022/12/05 00:55:22;;;;;;;8.47;1.23;;;;;;;13.02;nan;100325.16;6130715;23;20572;-88
2022/12/05 00:57:52;;;;;;;10.77;1.30;;;;;;;13.04;nan;100314.81;6106600;23;20484;-89
2022/12/05 01:00:29;;;;;;;7.30;1.50;;;;;;;13.06;nan;100309.94;6131026;23;20401;-89
2022/12/05 01:02:58;;;;;;;8.07;1.30;;;;;;;13.06;nan;100306.34;6107146;23;20397;-89
2022/12/05 01:05:34;;;;;;;8.40;1.50;;;;;;;12.99;nan;100289.91;6107376;23;20484;-89
2022/12/05 01:08:02;;;;;;;13.97;2.70;;;;;;;13.03;nan;100296.66;6106046;23;20913;-89
2022/12/05 01:10:32;;;;;;;3.23;1.40;;;;;;;13.06;nan;100296.22;6130907;23;20724;-89
2022/12/05 01:13:07;;;;;;;7.00;1.70;;;;;;;13.06;nan;100289.88;6131488;23;20548;-88
2022/12/05 01:15:40;;;;;;;7.23;1.40;;;;;;;12.97;nan;100275.59;6106195;23;20448;-89
2022/12/05 01:18:14;;;;;;;14.53;6.60;;;;;;;13.09;nan;100287.50;6156501;23;20487;-89
2022/12/05 01:20:44;;;;;;;13.20;8.83;;;;;;;13.08;nan;100285.03;6106689;23;20460;-89
2022/12/05 01:23:13;;;;;;;8.93;5.00;;;;;;;13.10;nan;100280.97;6106927;23;20446;-89
2022/12/05 01:25:52;;;;;;;10.30;3.50;;;;;;;13.13;nan;100269.56;6083112;23;20963;-89
2022/12/05 01:28:22;;;;;;;10.60;2.50;;;;;;;13.12;nan;100253.31;6130997;23;20400;-89
2022/12/05 01:30:50;;;;;;;7.60;2.63;;;;;;;13.14;nan;100254.78;6083813;23;20480;-89
2022/12/05 01:33:21;;;;;;;7.60;1.47;;;;;;;13.21;nan;100253.94;6082774;23;20401;-90
2022/12/05 01:35:49;;;;;;;16.67;2.23;;;;;;;13.20;nan;100244.84;6106347;23;20452;-89
2022/12/05 01:38:19;;;;;;;12.33;1.20;;;;;;;13.25;nan;100244.19;6083284;23;20477;-88
2022/12/05 01:40:48;;;;;;;6.27;1.50;;;;;;;13.31;nan;100246.00;6082496;23;20475;-89
2022/12/05 01:43:19;;;;;;;14.20;1.57;;;;;;;13.34;nan;100242.81;6082594;23;20404;-88
2022/12/05 01:45:50;;;;;;;16.80;2.00;;;;;;;13.33;nan;100249.38;6130488;23;20471;-89
2022/12/05 01:48:41;;;;;;;7.80;1.40;;;;;;;13.36;nan;100254.44;6130588;23;20409;-89
2022/12/05 01:51:19;;;;;;;8.53;1.60;;;;;;;13.41;nan;100254.59;6106028;23;20405;-89
2022/12/05 01:53:49;;;;;;;6.97;1.57;;;;;;;13.39;nan;100260.31;6106197;23;20408;-89
2022/12/05 01:56:17;;;;;;;11.23;1.80;;;;;;;13.41;nan;100271.06;6082489;23;20416;-89
2022/12/05 01:58:46;;;;;;;11.93;1.50;;;;;;;13.40;nan;100263.91;6106108;23;20412;-89
2022/12/05 02:01:15;;;;;;;4.13;1.83;;;;;;;13.45;nan;100275.06;6083371;23;20398;-89
2022/12/05 02:03:43;;;;;;;7.77;1.60;;;;;;;13.41;nan;100263.69;6084627;23;21000;-89
2022/12/05 02:06:11;;;;;;;9.03;1.93;;;;;;;13.34;nan;100262.03;6085124;23;20808;-89
2022/12/05 02:08:38;;;;;;;11.50;2.37;;;;;;;13.38;nan;100261.38;6084682;23;20411;-89
2022/12/05 02:11:07;;;;;;;17.97;3.63;;;;;;;13.48;nan;100267.19;6085123;23;20405;-89
2022/12/05 02:13:52;;;;;;;22.00;3.50;;;;;;;13.60;nan;100271.97;6084541;23;20475;-89
2022/12/05 02:16:47;;;;;;;13.50;2.80;;;;;;;13.69;nan;100273.34;6132254;23;20499;-89
2022/12/05 02:19:57;;;;;;;21.37;2.47;;;;;;;13.82;nan;100268.56;6109236;23;20409;-89
2022/12/05 02:22:40;;;;;;;26.53;2.90;;;;;;;13.97;nan;100261.88;6128815;23;20551;-88
2022/12/05 02:25:13;;;;;;;18.83;2.00;;;;;;;14.07;nan;100270.41;6186984;23;20478;-89
2022/12/05 02:28:19;;;;;;;17.57;2.03;;;;;;;14.16;nan;100258.06;6161878;23;20479;-88
2022/12/05 02:31:07;;;;;;;21.90;2.07;;;;;;;14.23;nan;100247.00;6161573;23;20471;-89
2022/12/05 02:33:43;;;;;;;26.47;3.50;;;;;;;14.32;nan;100235.44;6137123;23;20531;-89
2022/12/05 02:36:51;;;;;;;14.60;2.17;;;;;;;14.38;nan;100244.69;6187406;23;20953;-89
2022/12/05 02:39:31;;;;;;;20.00;2.70;;;;;;;14.45;nan;100229.78;6154405;23;20496;-88
2022/12/05 02:42:12;;;;;;;23.77;2.77;;;;;;;14.48;nan;100212.84;6161812;23;20871;-90
2022/12/05 02:44:47;;;;;;;27.67;3.30;;;;;;;14.52;nan;100194.81;6136097;23;20419;-89
2022/12/05 02:47:17;;;;;;;46.13;3.50;;;;;;;14.50;nan;100165.84;6161443;23;20515;-89
2022/12/05 02:49:46;;;;;;;23.27;3.07;;;;;;;14.50;nan;100161.19;6114012;23;20392;-88
2022/12/05 02:52:21;;;;;;;43.47;3.13;;;;;;;14.49;nan;100162.28;6113191;23;20471;-89
2022/12/05 02:55:13;;;;;;;25.50;3.43;;;;;;;14.50;nan;100166.69;6139606;23;20450;-90
2022/12/05 02:57:44;;;;;;;26.60;2.97;;;;;;;14.53;nan;100173.66;6125680;23;20408;-90
2022/12/05 03:00:23;;;;;;;24.63;3.10;;;;;;;14.55;nan;100160.50;6141318;23;20432;-89
2022/12/05 03:03:17;;;;;;;35.33;2.60;;;;;;;14.55;nan;100152.25;6126444;23;20408;-89
2022/12/05 03:06:29;;;;;;;24.53;2.73;;;;;;;14.56;nan;100156.69;6119695;23;20480;-89
2022/12/05 03:09:09;;;;;;;30.10;3.00;;;;;;;14.58;nan;100161.94;6139257;23;20419;-89
2022/12/05 03:12:13;;;;;;;28.47;3.00;;;;;;;14.56;nan;100169.59;6148581;23;20391;-89
2022/12/05 03:14:47;;;;;;;23.87;2.30;;;;;;;14.54;nan;100147.81;6160781;23;20428;-89
2022/12/05 03:17:24;;;;;;;18.13;2.47;;;;;;;14.50;nan;100130.13;6112641;23;20875;-89
2022/12/05 03:20:04;;;;;;;20.13;2.30;;;;;;;14.49;nan;100131.19;6112984;23;20487;-89
2022/12/05 03:22:36;;;;;;;23.57;2.30;;;;;;;14.54;nan;100124.97;6137926;23;20392;-90
2022/12/05 03:25:05;;;;;;;13.27;2.10;;;;;;;14.54;nan;100124.97;6161616;23;20475;-89
2022/12/05 03:27:54;;;;;;;33.80;3.20;;;;;;;14.57;nan;100119.03;6136805;23;20947;-89
2022/12/05 03:30:23;;;;;;;32.20;2.87;;;;;;;14.52;nan;100123.31;6113608;23;20479;-89
2022/12/05 03:33:12;;;;;;;21.80;2.07;;;;;;;14.55;nan;100115.66;6112692;23;20472;-89
2022/12/05 03:35:49;;;;;;;34.67;2.67;;;;;;;14.56;nan;100109.94;6113874;23;20811;-88
2022/12/05 03:38:39;;;;;;;28.33;2.80;;;;;;;14.57;nan;100111.59;6162035;23;20479;-89
2022/12/05 03:41:37;;;;;;;28.10;2.93;;;;;;;14.60;nan;100115.81;6113623;23;20461;-89
2022/12/05 03:44:18;;;;;;;26.30;3.80;;;;;;;14.56;nan;100109.09;6140615;23;20954;-89
2022/12/05 03:46:52;;;;;;;28.43;3.40;;;;;;;14.51;nan;100099.63;6112901;23;20475;-89
2022/12/05 03:49:43;;;;;;;21.30;2.00;;;;;;;14.51;nan;100110.63;6113463;23;20958;-89
2022/12/05 03:52:32;;;;;;;20.77;3.27;;;;;;;14.49;nan;100121.03;6136004;23;20416;-89
2022/12/05 03:55:18;;;;;;;27.10;3.97;;;;;;;14.41;nan;100091.13;6164634;23;20514;-89
2022/12/05 03:57:56;;;;;;;19.70;2.50;;;;;;;14.52;nan;100076.56;6112340;23;20467;-87
2022/12/05 04:00:23;;;;;;;18.07;2.80;;;;;;;14.48;nan;100069.84;6160683;23;20814;-88
2022/12/05 04:03:37;;;;;;;15.73;2.40;;;;;;;14.49;nan;100110.03;6112260;23;20482;-89
2022/12/05 04:06:30;;;;;;;31.87;2.67;;;;;;;14.46;nan;100076.66;6160039;23;20491;-87
2022/12/05 04:09:04;;;;;;;18.23;2.83;;;;;;;14.47;nan;100059.94;6136434;23;20772;-89
2022/12/05 04:11:37;;;;;;;16.80;2.50;;;;;;;14.54;nan;100072.75;6160861;23;20796;-89
2022/12/05 04:14:14;;;;;;;12.73;2.27;;;;;;;14.50;nan;100051.22;6136509;23;20747;-89
2022/12/05 04:17:22;;;;;;;11.73;1.60;;;;;;;14.45;nan;100007.06;6113062;23;20404;-87
2022/12/05 04:22:51;;;;;;;20.83;2.37;;;;;;;14.25;nan;100042.25;6074856;23;20582;-87
2022/12/05 04:25:32;;;;;;;27.10;2.53;;;;;;;14.21;nan;100034.75;6023867;23;20489;-87
2022/12/05 04:28:35;;;;;;;32.63;2.90;;;;;;;14.22;nan;100031.78;6071742;23;20497;-87
2022/12/05 04:31:09;;;;;;;33.37;3.03;;;;;;;14.18;nan;100030.56;6048560;23;20473;-88
2022/12/05 04:33:44;;;;;;;38.77;3.40;;;;;;;14.23;nan;100036.19;6025194;23;20490;-88
2022/12/05 04:36:21;;;;;;;34.80;10.63;;;;;;;14.25;nan;100024.94;6048133;23;20937;-88
2022/12/05 04:39:15;;;;;;;74.10;27.43;;;;;;;14.29;nan;100035.22;6024858;23;20870;-87
2022/12/05 04:42:14;;;;;;;156.10;59.80;;;;;;;14.24;nan;100029.59;6013606;23;20904;-89
2022/12/05 04:44:50;;;;;;;172.87;69.23;;;;;;;14.28;nan;100050.03;6014348;23;20974;-87
2022/12/05 04:47:22;;;;;;;149.43;62.40;;;;;;;14.31;nan;100051.50;6037952;23;20476;-87
2022/12/05 04:49:52;;;;;;;146.80;69.13;;;;;;;14.27;nan;100040.13;6014331;23;20516;-87
2022/12/05 04:52:21;;;;;;;175.03;88.27;;;;;;;14.31;nan;100030.34;6014328;23;20475;-88
2022/12/05 04:54:55;;;;;;;114.53;57.03;;;;;;;14.32;nan;100036.69;6027135;23;20439;-88
2022/12/05 04:57:51;;;;;;;46.40;14.17;;;;;;;14.33;nan;100033.69;6094268;23;20494;-87
2022/12/05 05:00:20;;;;;;;41.90;15.53;;;;;;;14.29;nan;100048.97;6085390;23;20744;-88
2022/12/05 05:03:06;;;;;;;41.87;17.80;;;;;;;14.29;nan;100070.97;6083154;23;20488;-88
2022/12/05 05:05:44;;;;;;;39.00;17.33;;;;;;;14.24;nan;100067.28;6085068;23;20491;-89
2022/12/05 05:08:22;;;;;;;39.60;23.80;;;;;;;14.23;nan;100065.59;6042380;23;20412;-88
2022/12/05 05:11:06;;;;;;;38.50;23.33;;;;;;;14.20;nan;100063.31;6019987;23;20913;-88
2022/12/05 05:13:33;;;;;;;31.63;18.63;;;;;;;14.20;nan;100077.88;6043968;23;20933;-87
2022/12/05 05:16:07;;;;;;;26.33;12.63;;;;;;;14.13;nan;100066.13;6065992;23;20960;-88
2022/12/05 05:18:35;;;;;;;24.33;10.90;;;;;;;14.21;nan;100086.97;6043036;23;20399;-89
2022/12/05 05:21:04;;;;;;;24.10;12.07;;;;;;;14.22;nan;100081.25;6066685;23;20408;-88
2022/12/05 05:23:32;;;;;;;27.47;12.20;;;;;;;14.24;nan;100065.31;6029270;23;20519;-87
2022/12/05 05:26:04;;;;;;;30.90;13.23;;;;;;;14.26;nan;100076.94;6026920;23;20484;-88
2022/12/05 05:28:31;;;;;;;19.67;11.80;;;;;;;14.23;nan;100084.84;6130415;23;20397;-88
2022/12/05 05:31:03;;;;;;;25.27;10.30;;;;;;;14.23;nan;100093.91;6082860;23;20483;-88
2022/12/05 05:33:32;;;;;;;23.83;9.87;;;;;;;14.24;nan;100098.31;6082602;23;20753;-88
2022/12/05 05:36:09;;;;;;;18.10;9.20;;;;;;;14.20;nan;100088.88;6082269;23;20516;-88
2022/12/05 05:38:44;;;;;;;20.57;8.30;;;;;;;14.19;nan;100076.22;6083098;23;20476;-88
2022/12/05 05:41:39;;;;;;;25.47;6.97;;;;;;;14.18;nan;100085.53;6107248;23;20405;-88
2022/12/05 05:44:06;;;;;;;17.77;6.67;;;;;;;14.16;nan;100088.50;6104810;23;20488;-88
2022/12/05 05:46:34;;;;;;;17.33;6.63;;;;;;;14.15;nan;100091.47;6106421;23;20504;-87
2022/12/05 05:49:02;;;;;;;23.37;6.83;;;;;;;14.14;nan;100095.31;6083190;23;20556;-88
2022/12/05 05:51:31;;;;;;;18.57;6.00;;;;;;;14.15;nan;100113.47;6105749;23;20424;-88
2022/12/05 05:53:58;;;;;;;18.80;7.20;;;;;;;14.05;nan;100085.69;6082972;23;20518;-88
2022/12/05 05:56:29;;;;;;;31.10;10.93;;;;;;;14.16;nan;100112.41;6082224;23;20456;-89
2022/12/05 05:58:59;;;;;;;17.97;8.90;;;;;;;14.15;nan;100107.97;6105873;23;20472;-89
2022/12/05 06:01:32;;;;;;;22.70;7.70;;;;;;;14.14;nan;100111.78;6082618;23;20420;-89
2022/12/05 06:04:00;;;;;;;17.97;7.07;;;;;;;14.12;nan;100108.44;6106365;23;20472;-89
2022/12/05 06:06:37;;;;;;;21.87;6.33;;;;;;;14.13;nan;100115.59;6106103;23;20808;-89
2022/12/05 06:09:07;;;;;;;15.57;3.77;;;;;;;14.08;nan;100104.47;6106359;23;20468;-89
2022/12/05 06:11:36;;;;;;;22.03;5.47;;;;;;;14.02;nan;100102.66;6106330;23;20484;-88
2022/12/05 06:14:03;;;;;;;16.10;4.57;;;;;;;14.01;nan;100111.97;6082302;23;20420;-89
2022/12/05 06:16:38;;;;;;;18.37;2.70;;;;;;;13.93;nan;100098.56;6105554;23;20440;-89
2022/12/05 06:19:06;;;;;;;21.37;2.40;;;;;;;13.94;nan;100111.22;6107035;23;20479;-89
2022/12/05 06:21:34;;;;;;;12.67;1.80;;;;;;;13.92;nan;100107.84;6082134;23;20401;-89
2022/12/05 06:24:04;;;;;;;14.13;2.03;;;;;;;13.94;nan;100105.72;6111821;23;20520;-89
2022/12/05 06:26:33;;;;;;;18.23;2.00;;;;;;;13.95;nan;100110.16;6129486;23;20412;-89
2022/12/05 06:29:04;;;;;;;10.23;2.13;;;;;;;13.95;nan;100104.66;6130816;23;20488;-89
2022/12/05 06:31:33;;;;;;;30.83;2.17;;;;;;;13.94;nan;100106.56;6130409;23;20897;-89
2022/12/05 06:34:07;;;;;;;12.40;2.00;;;;;;;13.94;nan;100106.56;6106383;23;20940;-89
2022/12/05 06:36:37;;;;;;;11.10;1.67;;;;;;;13.93;nan;100101.28;6106585;23;20990;-89
2022/12/05 06:39:10;;;;;;;12.70;2.00;;;;;;;13.92;nan;100108.69;6130775;23;20472;-89
2022/12/05 06:41:37;;;;;;;8.70;2.50;;;;;;;13.92;nan;100110.59;6131017;23;20874;-89
2022/12/05 06:44:12;;;;;;;19.10;2.33;;;;;;;13.90;nan;100110.84;6105849;23;20471;-89
2022/12/05 06:46:50;;;;;;;9.37;1.97;;;;;;;13.91;nan;100118.00;6105932;23;20780;-89
2022/12/05 06:49:20;;;;;;;14.30;2.80;;;;;;;13.89;nan;100108.31;6155655;23;20492;-89
2022/12/05 06:51:58;;;;;;;29.33;8.03;;;;;;;13.93;nan;100126.03;6156004;23;20752;-89
2022/12/05 06:54:26;;;;;;;16.83;6.50;;;;;;;13.96;nan;100133.81;6107824;23;20452;-89
2022/12/05 06:56:54;;;;;;;18.30;4.70;;;;;;;13.98;nan;100148.16;6107567;23;20468;-89
2022/12/05 06:59:24;;;;;;;19.07;3.27;;;;;;;13.96;nan;100125.56;6107237;23;20411;-89
2022/12/05 07:01:52;;;;;;;21.20;3.70;;;;;;;14.08;nan;100137.44;6156050;23;20492;-88
2022/12/05 07:04:23;;;;;;;19.83;2.77;;;;;;;14.11;nan;100131.47;6107316;23;20856;-89
2022/12/05 07:06:52;;;;;;;24.47;3.20;;;;;;;14.15;nan;100128.06;6132150;23;20400;-88
2022/12/05 07:09:44;;;;;;;25.43;3.03;;;;;;;14.18;nan;100127.59;6108419;23;20480;-88
2022/12/05 07:12:13;;;;;;;25.30;3.50;;;;;;;14.25;nan;100134.88;6135839;23;20956;-88
2022/12/05 07:14:44;;;;;;;28.83;4.40;;;;;;;14.25;nan;100110.16;6155969;23;20397;-88
2022/12/05 07:17:15;;;;;;;30.30;4.07;;;;;;;14.27;nan;100110.75;6108636;23;20456;-88
2022/12/05 07:19:50;;;;;;;17.27;4.80;;;;;;;14.29;nan;100125.09;6131336;23;20735;-88
2022/12/05 07:22:19;;;;;;;16.60;3.60;;;;;;;14.26;nan;100109.91;6155792;23;20543;-88
2022/12/05 07:24:54;;;;;;;71.00;32.73;;;;;;;14.28;nan;100110.53;6085995;23;20488;-88
2022/12/05 07:27:22;;;;;;;33.70;17.93;;;;;;;14.33;nan;100116.16;6084185;23;20405;-88
2022/12/05 07:29:55;;;;;;;36.80;17.40;;;;;;;14.35;nan;100125.03;6085623;23;20939;-89
2022/12/05 07:32:24;;;;;;;36.20;14.43;;;;;;;14.32;nan;100113.66;6084206;23;20413;-89
2022/12/05 07:34:52;;;;;;;16.23;5.50;;;;;;;14.27;nan;100111.59;6084088;23;20392;-90
2022/12/05 07:37:22;;;;;;;13.30;4.40;;;;;;;14.37;nan;100122.88;6084528;23;20433;-89
2022/12/05 07:39:53;;;;;;;32.17;3.50;;;;;;;14.40;nan;100122.44;6106734;23;20491;-90
2022/12/05 07:42:27;;;;;;;21.60;4.03;;;;;;;14.35;nan;100114.03;6158184;23;20471;-90
2022/12/05 07:44:57;;;;;;;18.10;3.03;;;;;;;14.37;nan;100120.13;6108070;23;20437;-90
2022/12/05 07:47:30;;;;;;;12.60;2.80;;;;;;;14.33;nan;100116.16;6132392;23;20404;-89
2022/12/05 07:49:59;;;;;;;10.90;1.83;;;;;;;14.33;nan;100118.06;6131732;23;20416;-89
2022/12/05 07:52:28;;;;;;;11.37;1.67;;;;;;;14.33;nan;100123.56;6107111;23;20413;-90
2022/12/05 07:54:57;;;;;;;16.90;2.27;;;;;;;14.33;nan;100118.91;6107529;23;20544;-90
2022/12/05 07:57:28;;;;;;;15.90;2.30;;;;;;;14.31;nan;100118.31;6084331;23;20508;-89
2022/12/05 07:59:56;;;;;;;13.07;2.50;;;;;;;14.32;nan;100111.75;6107388;23;20389;-90
2022/12/05 08:02:24;;;;;;;21.33;2.60;;;;;;;14.33;nan;100113.41;6083822;23;20551;-89
2022/12/05 08:04:52;;;;;;;10.90;1.67;;;;;;;14.32;nan;100102.66;6083811;23;20481;-89
2022/12/05 08:07:21;;;;;;;9.33;1.53;;;;;;;14.28;nan;100115.19;6107045;23;20406;-89
2022/12/05 08:09:53;;;;;;;23.30;2.00;;;;;;;14.29;nan;100117.69;6083989;23;20978;-92
2022/12/05 08:12:26;;;;;;;8.73;1.57;;;;;;;14.16;nan;100088.50;6084057;23;20420;-90
2022/12/05 08:15:20;;;;;;;8.60;3.03;;;;;;;14.22;nan;100105.97;6084914;23;20778;-92
2022/12/05 08:21:11;;;;;;;18.00;3.00;;;;;;;14.17;nan;100111.31;6156761;23;20432;-89
2022/12/05 08:23:39;;;;;;;13.20;3.83;;;;;;;14.16;nan;100107.75;6083296;23;20436;-90
2022/12/05 08:26:19;;;;;;;12.13;4.60;;;;;;;14.16;nan;100090.41;6082551;23;20875;-88
2022/12/05 08:28:50;;;;;;;7.40;2.40;;;;;;;14.19;nan;100114.69;6108880;23;20423;-90
2022/12/05 08:31:18;;;;;;;14.53;3.23;;;;;;;14.16;nan;100117.91;6107532;23;20398;-90
2022/12/05 08:33:50;;;;;;;20.27;2.47;;;;;;;14.23;nan;100124.16;6107084;23;20397;-90
2022/12/05 08:36:27;;;;;;;10.00;2.27;;;;;;;14.25;nan;100127.47;6132681;23;20429;-91
2022/12/05 08:38:56;;;;;;;12.10;2.00;;;;;;;14.24;nan;100128.53;6106610;23;20420;-90
2022/12/05 08:41:38;;;;;;;12.83;2.40;;;;;;;14.30;nan;100129.53;6083292;23;20402;-91
2022/12/05 08:44:17;;;;;;;7.37;2.47;;;;;;;14.25;nan;100129.38;6083986;23;20393;-91
2022/12/05 08:47:06;;;;;;;11.93;3.37;;;;;;;14.26;nan;100142.06;6107616;23;20907;-93
2022/12/05 08:49:46;;;;;;;9.13;3.23;;;;;;;14.23;nan;100142.56;6107604;23;20389;-91
2022/12/05 08:52:15;;;;;;;16.87;4.30;;;;;;;14.22;nan;100140.88;6107208;23;20413;-92
2022/12/05 08:54:51;;;;;;;10.40;3.30;;;;;;;14.26;nan;100153.06;6083755;23;20939;-92
2022/12/05 08:57:40;;;;;;;10.20;4.03;;;;;;;14.14;nan;100139.28;6106828;23;20749;-91
2022/12/05 09:00:25;;;;;;;13.53;3.20;;;;;;;14.23;nan;100157.13;6085924;23;20559;-92
2022/12/05 09:03:30;;;;;;;13.03;2.40;;;;;;;14.27;nan;100160.22;6107024;23;20737;-92
2022/12/05 09:28:50;;;;;;;23.67;10.23;;;;;;;14.48;nan;100163.34;6230223;22;20799;-93
2022/12/05 09:31:24;;;;;;;29.10;11.93;;;;;;;14.54;nan;100166.25;6112683;23;20401;-93
2022/12/05 09:33:51;;;;;;;30.20;12.73;;;;;;;14.55;nan;100157.75;6112216;23;20478;-88
2022/12/05 09:36:26;;;;;;;31.27;15.20;;;;;;;14.62;nan;100168.66;6136336;23;20585;-88
2022/12/05 09:38:55;;;;;;;31.97;13.37;;;;;;;14.64;nan;100169.25;6111975;23;20475;-91
2022/12/05 09:42:09;;;;;;;29.17;7.67;;;;;;;14.72;nan;100177.19;6111909;23;20890;-89
2022/12/05 09:44:49;;;;;;;24.53;5.73;;;;;;;14.79;nan;100166.91;6160575;23;20400;-91
2022/12/05 09:47:37;;;;;;;21.60;5.93;;;;;;;14.85;nan;100179.72;6138014;23;20542;-88
2022/12/05 09:50:19;;;;;;;18.77;5.30;;;;;;;14.93;nan;100171.13;6159543;23;20475;-89
2022/12/05 09:53:21;;;;;;;20.23;3.63;;;;;;;15.05;nan;100177.47;6160174;23;20833;-91
2022/12/05 09:56:15;;;;;;;20.27;3.93;;;;;;;15.11;nan;100176.53;6186156;23;20748;-91
2022/12/05 09:58:51;;;;;;;13.83;2.50;;;;;;;15.22;nan;100174.84;6160882;23;20412;-92
2022/12/05 10:01:40;;;;;;;19.20;2.73;;;;;;;15.41;nan;100172.81;6137800;23;20438;-91
2022/12/05 10:04:30;;;;;;;15.50;3.00;;;;;;;15.52;nan;100172.00;6160444;23;21006;-93
2022/12/05 10:07:39;;;;;;;14.73;2.33;;;;;;;15.65;nan;100174.53;6160265;23;20400;-93
2022/12/05 10:10:44;;;;;;;22.03;2.90;;;;;;;15.72;nan;100175.25;6160162;23;20412;-92
2022/12/05 10:13:44;;;;;;;24.70;2.60;;;;;;;15.73;nan;100182.44;6160677;23;20411;-92
2022/12/05 10:16:20;;;;;;;16.63;2.50;;;;;;;15.63;nan;100162.91;6136561;23;20527;-92
2022/12/05 10:18:59;;;;;;;14.00;2.30;;;;;;;15.64;nan;100177.53;6137472;23;20404;-91
2022/12/05 10:21:50;;;;;;;13.73;3.70;;;;;;;15.60;nan;100187.34;6136040;23;20399;-91
2022/12/05 10:24:26;;;;;;;20.70;4.13;;;;;;;15.47;nan;100177.38;6140293;23;20784;-91
2022/12/05 10:26:59;;;;;;;20.17;4.20;;;;;;;15.51;nan;100195.13;6114888;23;20976;-91
2022/12/05 10:29:56;;;;;;;21.03;4.50;;;;;;;15.41;nan;100194.84;6137569;23;20867;-90
2022/12/05 10:32:44;;;;;;;16.70;3.57;;;;;;;15.40;nan;100198.69;6136422;23;20411;-91
2022/12/05 10:35:32;;;;;;;22.27;4.50;;;;;;;15.37;nan;100216.56;6141191;23;20798;-91
2022/12/05 10:38:28;;;;;;;25.17;4.40;;;;;;;15.34;nan;100210.69;6137718;23;20443;-90
2022/12/05 10:40:58;;;;;;;23.93;6.03;;;;;;;15.31;nan;100213.91;6137662;23;20411;-90
2022/12/05 10:43:42;;;;;;;21.33;5.50;;;;;;;15.31;nan;100225.75;6137918;23;20790;-91
2022/12/05 10:46:13;;;;;;;21.47;5.90;;;;;;;15.27;nan;100237.47;6138241;23;20535;-91
2022/12/05 10:48:45;;;;;;;37.80;10.90;;;;;;;15.27;nan;100242.97;6138688;23;20408;-90
2022/12/05 10:51:24;;;;;;;29.63;10.10;;;;;;;15.25;nan;100250.63;6113660;23;20483;-90
2022/12/05 10:53:54;;;;;;;35.87;14.60;;;;;;;15.26;nan;100246.81;6139300;23;20418;-91
2022/12/05 10:56:44;;;;;;;85.07;46.80;;;;;;;15.24;nan;100243.44;6113778;23;20432;-90
2022/12/05 10:59:40;;;;;;;48.33;23.70;;;;;;;15.22;nan;100246.44;6137679;23;20396;-91
2022/12/05 11:02:26;;;;;;;45.60;14.77;;;;;;;15.17;nan;100241.66;6142074;23;20412;-91
2022/12/05 11:04:57;;;;;;;34.87;8.97;;;;;;;15.15;nan;100234.72;6115829;23;20487;-90
2022/12/05 11:07:32;;;;;;;30.97;12.50;;;;;;;15.16;nan;100237.22;6162039;23;20412;-90
2022/12/05 11:10:04;;;;;;;20.73;5.57;;;;;;;15.16;nan;100230.88;6137352;23;20411;-91
2022/12/05 11:12:38;;;;;;;22.03;7.50;;;;;;;15.05;nan;100229.78;6112988;23;20418;-90
2022/12/05 11:15:27;;;;;;;16.20;9.03;;;;;;;15.09;nan;100219.97;6113827;23;20482;-89
2022/12/05 11:18:00;;;;;;;12.17;4.53;;;;;;;15.06;nan;100217.69;6161654;23;20537;-89
2022/12/05 11:20:36;;;;;;;15.60;4.87;;;;;;;15.01;nan;100205.72;6114006;23;20544;-90
2022/12/05 11:26:44;;;;;;;15.43;5.60;;;;;;;15.18;nan;100224.06;6187794;23;20408;-89
2022/12/05 11:29:30;;;;;;;16.17;4.50;;;;;;;15.24;nan;100226.94;6108059;23;20432;-89
2022/12/05 11:32:01;;;;;;;19.33;7.90;;;;;;;15.25;nan;100223.09;6156365;23;20464;-88
2022/12/05 11:34:55;;;;;;;19.03;4.30;;;;;;;15.28;nan;100217.97;6132899;23;20789;-88
2022/12/05 11:37:48;;;;;;;14.73;4.50;;;;;;;15.36;nan;100205.78;6135741;23;20812;-88
2022/12/05 11:40:32;;;;;;;12.83;4.40;;;;;;;15.44;nan;100199.91;6135127;23;20393;-89
2022/12/05 11:43:39;;;;;;;22.40;8.40;;;;;;;15.52;nan;100191.28;6135551;23;20942;-89
2022/12/05 11:46:15;;;;;;;22.83;7.50;;;;;;;15.57;nan;100187.84;6156486;23;20741;-89
2022/12/05 11:48:59;;;;;;;27.07;9.70;;;;;;;15.64;nan;100177.53;6133025;23;20714;-88
2022/12/05 11:51:33;;;;;;;29.50;15.47;;;;;;;15.75;nan;100191.31;6108521;23;20476;-90
2022/12/05 11:54:39;;;;;;;22.10;9.70;;;;;;;15.78;nan;100184.44;6157729;23;20416;-88
2022/12/05 11:57:42;;;;;;;21.33;12.07;;;;;;;15.79;nan;100175.94;6157490;23;20443;-89
2022/12/05 12:00:20;;;;;;;18.57;10.23;;;;;;;15.85;nan;100180.50;6134745;23;20394;-90
2022/12/05 12:03:18;;;;;;;20.50;10.57;;;;;;;15.92;nan;100166.59;6049450;23;20483;-89
2022/12/05 12:06:07;;;;;;;20.23;12.50;;;;;;;15.96;nan;100161.44;6072816;23;20486;-89
2022/12/05 12:09:18;;;;;;;23.60;10.20;;;;;;;15.96;nan;100161.44;6096288;23;21006;-89
2022/12/05 12:12:12;;;;;;;19.50;8.70;;;;;;;15.97;nan;100154.84;6072534;23;20535;-89
2022/12/05 12:15:21;;;;;;;14.13;6.70;;;;;;;16.04;nan;100150.00;6050863;23;20411;-90
2022/12/05 12:18:30;;;;;;;12.40;5.77;;;;;;;16.02;nan;100132.88;6058611;23;20454;-89
2022/12/05 12:21:17;;;;;;;15.43;4.97;;;;;;;16.16;nan;100148.06;6071354;23;20411;-89
2022/12/05 12:24:10;;;;;;;11.87;3.73;;;;;;;16.15;nan;100138.97;6048925;23;20961;-89
2022/12/05 12:27:05;;;;;;;13.73;3.00;;;;;;;16.18;nan;100140.38;6036388;23;20409;-89
2022/12/05 12:29:42;;;;;;;14.90;4.63;;;;;;;16.20;nan;100146.47;6151148;23;20496;-90
2022/12/05 12:32:30;;;;;;;15.87;4.87;;;;;;;16.17;nan;100138.69;6132450;23;20404;-89
2022/12/05 12:35:17;;;;;;;18.73;8.20;;;;;;;16.16;nan;100137.84;6132177;23;20868;-89
2022/12/05 12:37:47;;;;;;;12.83;5.40;;;;;;;16.15;nan;100140.88;6155829;23;20429;-89
2022/12/05 12:40:35;;;;;;;12.40;6.60;;;;;;;16.10;nan;100143.53;6131887;23;20413;-89
2022/12/05 12:43:19;;;;;;;16.87;6.30;;;;;;;16.09;nan;100145.44;6155389;23;20719;-89
2022/12/05 12:46:34;;;;;;;17.77;8.37;;;;;;;16.05;nan;100140.66;6136002;23;20397;-89
2022/12/05 12:49:39;;;;;;;14.17;5.47;;;;;;;16.05;nan;100135.16;6131697;23;20464;-89
2022/12/05 12:52:24;;;;;;;15.97;8.40;;;;;;;16.03;nan;100137.31;6131784;23;20403;-89
2022/12/05 12:55:18;;;;;;;17.63;6.53;;;;;;;16.05;nan;100140.66;6132639;23;20411;-89
2022/12/05 12:58:16;;;;;;;17.70;5.00;;;;;;;16.05;nan;100135.16;6156726;23;20516;-89